Terminal Aerodrome Forecast
Issued by NWS

Home | Current Version | Previous Version | Text Only | Print | Product List | Glossary On
Versions: 1 2 3 4 5 6 7 8 9 10 11 12 13 14 15 16 17 18 19 20 21 22 23 24
000
FTUS46 KMTR 041720
TAFSFO
TAF
KSFO 041720Z 0418/0524 30009KT P6SM FEW010
     FM042100 29017G23KT P6SM FEW011
     FM050300 28015KT P6SM FEW011
     FM050900 27006KT P6SM BKN010
     FM051200 27006KT P6SM OVC008
     FM051700 29008KT P6SM FEW008 SCT010
     FM052100 28015KT P6SM FEW012=

USA.gov is the U.S. government's official web portal to all federal, state and local government web resources and services.